デリー の空港の天気 - METARとTAF

インディラ・ガンディー国際空港 ( VIDP / DEL ) - インド デリー
飛行場実況気象(Metar)
観測時間-
風向・風速- -
視程-
天気現象-
-
気温-
湿度-
気圧-
METAR-
過去の天気等 Google飛行場航空写真 Wunderground天気予報

過去48時間のMETAR

飛行場予報(TAF)
発表時間: 8/05 10:30 IST (8/05 05:00 UTC)
予報対象時間: 5日11時 IST ~ 6日17時 IST
風向・風速東 5m/s 瞬間風速 10m/s
視程3000m
天気現象弱い雷雨 煙霧
全天の4割程度の雲 雲底高度 910m
全天の8割程度の雲 雲底高度 2740m
5日13時 IST ~ 5日15時 IST に徐々に
風向・風速東 4m/s
視程4000m
天気現象煙霧
全天の4割程度の雲 雲底高度 1070m
全天の8割程度の雲 雲底高度 3050m
5日16時 IST ~ 5日19時 IST に一時的に
視程2000m
天気現象弱い雷雨
全天の4割程度の雲 雲底高度 910m
少しの積乱雲 雲底高度 1070m
全天の8割程度の雲 雲底高度 2740m
5日23時 IST ~ 6日1時 IST に徐々に
風向・風速北北東 2m/s
視程3000m
天気現象もや
少しの雲 雲底高度 1220m
全天の4割程度の雲 雲底高度 3050m
6日3時 IST ~ 6日7時 IST に一時的に
視程2500m
天気現象もや 雨
全天の4割程度の雲 雲底高度 1070m
全天の8割程度の雲 雲底高度 2740m
6日10時 IST ~ 6日12時 IST に徐々に
風向・風速東南東 4m/s
視程3500m
天気現象煙霧
6日15時 IST ~ 6日17時 IST に一時的に
視程2500m
天気現象弱い雷雨
全天の4割程度の雲 雲底高度 910m
少しの積乱雲 雲底高度 1070m
全天の8割程度の雲 雲底高度 2740m
TAF VIDP 050500Z 0506/0612 09010G20KT 3000 -TSRA HZ SCT030 BKN090
BECMG 0508/0510 09008KT 4000 HZ SCT035 BKN100
TEMPO 0511/0514 2000 -TSRA SCT030 FEW035CB BKN090
BECMG 0518/0520 03004KT 3000 BR FEW040 SCT100
TEMPO 0522/0602 2500 BR RA SCT035 BKN090
BECMG 0605/0607 11008KT 3500 HZ
TEMPO 0610/0612 2500 -TSRA SCT030 FEW035CB BKN090